sensor_id;sensor_type;location;lat;lon;timestamp;temperature;humidity
26099;DHT22;13860;52.370;6.764;2022-08-19T00:03:05;20.60;68.80
26099;DHT22;13860;52.370;6.764;2022-08-19T00:06:10;20.60;69.50
26099;DHT22;13860;52.370;6.764;2022-08-19T00:09:24;20.60;69.00
26099;DHT22;13860;52.370;6.764;2022-08-19T00:12:29;20.50;69.00
26099;DHT22;13860;52.370;6.764;2022-08-19T00:15:40;20.50;69.10
26099;DHT22;13860;52.370;6.764;2022-08-19T00:18:47;20.50;69.10
26099;DHT22;13860;52.370;6.764;2022-08-19T00:21:52;20.40;69.10
26099;DHT22;13860;52.370;6.764;2022-08-19T00:25:00;20.40;69.20
26099;DHT22;13860;52.370;6.764;2022-08-19T00:28:05;20.40;69.30
26099;DHT22;13860;52.370;6.764;2022-08-19T00:31:10;20.30;69.30
26099;DHT22;13860;52.370;6.764;2022-08-19T00:34:16;20.30;69.30
26099;DHT22;13860;52.370;6.764;2022-08-19T00:37:22;20.30;69.40
26099;DHT22;13860;52.370;6.764;2022-08-19T00:40:30;20.20;69.40
26099;DHT22;13860;52.370;6.764;2022-08-19T00:43:35;20.20;69.50
26099;DHT22;13860;52.370;6.764;2022-08-19T00:46:42;20.10;69.50
26099;DHT22;13860;52.370;6.764;2022-08-19T00:49:59;20.10;69.60
26099;DHT22;13860;52.370;6.764;2022-08-19T00:53:04;20.10;69.70
26099;DHT22;13860;52.370;6.764;2022-08-19T00:56:15;20.00;69.70
26099;DHT22;13860;52.370;6.764;2022-08-19T00:59:20;20.00;69.70
26099;DHT22;13860;52.370;6.764;2022-08-19T01:02:45;20.00;69.80
26099;DHT22;13860;52.370;6.764;2022-08-19T01:05:52;19.90;69.80
26099;DHT22;13860;52.370;6.764;2022-08-19T01:08:59;19.90;70.00
26099;DHT22;13860;52.370;6.764;2022-08-19T01:12:07;19.90;70.00
26099;DHT22;13860;52.370;6.764;2022-08-19T01:15:17;19.80;70.20
26099;DHT22;13860;52.370;6.764;2022-08-19T01:18:23;19.80;70.20
26099;DHT22;13860;52.370;6.764;2022-08-19T01:21:32;19.80;70.20
26099;DHT22;13860;52.370;6.764;2022-08-19T01:24:41;19.70;70.40
26099;DHT22;13860;52.370;6.764;2022-08-19T01:27:52;19.70;70.40
26099;DHT22;13860;52.370;6.764;2022-08-19T01:31:03;19.70;70.40
26099;DHT22;13860;52.370;6.764;2022-08-19T01:34:09;19.70;70.50
26099;DHT22;13860;52.370;6.764;2022-08-19T01:37:14;19.60;70.50
26099;DHT22;13860;52.370;6.764;2022-08-19T01:40:32;19.60;70.60
26099;DHT22;13860;52.370;6.764;2022-08-19T01:43:37;19.60;70.70
26099;DHT22;13860;52.370;6.764;2022-08-19T01:47:03;19.60;70.70
26099;DHT22;13860;52.370;6.764;2022-08-19T01:50:10;19.60;70.80
26099;DHT22;13860;52.370;6.764;2022-08-19T01:53:15;19.50;70.80
26099;DHT22;13860;52.370;6.764;2022-08-19T01:56:23;19.50;70.80
26099;DHT22;13860;52.370;6.764;2022-08-19T01:59:30;19.40;70.90
26099;DHT22;13860;52.370;6.764;2022-08-19T02:02:38;19.40;71.00
26099;DHT22;13860;52.370;6.764;2022-08-19T02:05:57;19.40;71.00
26099;DHT22;13860;52.370;6.764;2022-08-19T02:09:04;19.40;71.20
26099;DHT22;13860;52.370;6.764;2022-08-19T02:12:12;19.40;71.20
26099;DHT22;13860;52.370;6.764;2022-08-19T02:15:19;19.30;71.20
26099;DHT22;13860;52.370;6.764;2022-08-19T02:18:24;19.30;71.30
26099;DHT22;13860;52.370;6.764;2022-08-19T02:21:30;19.30;71.30
26099;DHT22;13860;52.370;6.764;2022-08-19T02:24:35;19.30;71.40
26099;DHT22;13860;52.370;6.764;2022-08-19T02:27:43;19.30;71.50
26099;DHT22;13860;52.370;6.764;2022-08-19T02:30:50;19.20;71.50
26099;DHT22;13860;52.370;6.764;2022-08-19T02:33:56;19.20;71.50
26099;DHT22;13860;52.370;6.764;2022-08-19T02:37:01;19.20;71.60
26099;DHT22;13860;52.370;6.764;2022-08-19T02:40:07;19.20;71.60
26099;DHT22;13860;52.370;6.764;2022-08-19T02:43:16;19.10;71.70
26099;DHT22;13860;52.370;6.764;2022-08-19T02:46:24;19.10;71.80
26099;DHT22;13860;52.370;6.764;2022-08-19T02:49:31;19.10;71.80
26099;DHT22;13860;52.370;6.764;2022-08-19T02:52:36;19.10;71.90
26099;DHT22;13860;52.370;6.764;2022-08-19T02:55:45;19.10;72.00
26099;DHT22;13860;52.370;6.764;2022-08-19T02:58:53;19.00;72.00
26099;DHT22;13860;52.370;6.764;2022-08-19T03:01:58;19.00;72.10
26099;DHT22;13860;52.370;6.764;2022-08-19T03:05:05;19.00;72.00
26099;DHT22;13860;52.370;6.764;2022-08-19T03:08:11;19.00;72.10
26099;DHT22;13860;52.370;6.764;2022-08-19T03:11:18;19.00;72.20
26099;DHT22;13860;52.370;6.764;2022-08-19T03:14:26;18.90;72.10
26099;DHT22;13860;52.370;6.764;2022-08-19T03:17:31;18.90;72.20
26099;DHT22;13860;52.370;6.764;2022-08-19T03:20:41;18.90;72.20
26099;DHT22;13860;52.370;6.764;2022-08-19T03:23:47;18.90;72.40
26099;DHT22;13860;52.370;6.764;2022-08-19T03:26:54;18.80;72.30
26099;DHT22;13860;52.370;6.764;2022-08-19T03:30:04;18.80;72.40
26099;DHT22;13860;52.370;6.764;2022-08-19T03:33:12;18.80;72.40
26099;DHT22;13860;52.370;6.764;2022-08-19T03:36:26;18.80;72.40
26099;DHT22;13860;52.370;6.764;2022-08-19T03:39:32;18.70;72.50
26099;DHT22;13860;52.370;6.764;2022-08-19T03:42:37;18.70;72.50
26099;DHT22;13860;52.370;6.764;2022-08-19T03:46:03;18.70;72.60
26099;DHT22;13860;52.370;6.764;2022-08-19T03:49:08;18.60;72.70
26099;DHT22;13860;52.370;6.764;2022-08-19T03:52:15;18.60;72.70
26099;DHT22;13860;52.370;6.764;2022-08-19T03:55:20;18.60;72.70
26099;DHT22;13860;52.370;6.764;2022-08-19T03:58:26;18.60;72.70
26099;DHT22;13860;52.370;6.764;2022-08-19T04:01:35;18.60;72.80
26099;DHT22;13860;52.370;6.764;2022-08-19T04:04:41;18.50;72.80
26099;DHT22;13860;52.370;6.764;2022-08-19T04:07:46;18.50;72.80
26099;DHT22;13860;52.370;6.764;2022-08-19T04:10:51;18.50;72.80
26099;DHT22;13860;52.370;6.764;2022-08-19T04:13:57;18.50;72.90
26099;DHT22;13860;52.370;6.764;2022-08-19T04:17:07;18.40;72.90
26099;DHT22;13860;52.370;6.764;2022-08-19T04:20:13;18.40;72.90
26099;DHT22;13860;52.370;6.764;2022-08-19T04:23:18;18.40;72.90
26099;DHT22;13860;52.370;6.764;2022-08-19T04:26:26;18.40;73.00
26099;DHT22;13860;52.370;6.764;2022-08-19T04:29:34;18.30;73.70
26099;DHT22;13860;52.370;6.764;2022-08-19T04:32:44;18.30;73.00
26099;DHT22;13860;52.370;6.764;2022-08-19T04:35:51;18.30;73.10
26099;DHT22;13860;52.370;6.764;2022-08-19T04:38:58;18.20;73.10
26099;DHT22;13860;52.370;6.764;2022-08-19T04:42:04;18.20;73.20
26099;DHT22;13860;52.370;6.764;2022-08-19T04:45:31;18.20;73.20
26099;DHT22;13860;52.370;6.764;2022-08-19T04:48:47;18.10;73.10
26099;DHT22;13860;52.370;6.764;2022-08-19T04:51:53;18.10;73.20
26099;DHT22;13860;52.370;6.764;2022-08-19T04:54:58;18.10;73.30
26099;DHT22;13860;52.370;6.764;2022-08-19T04:58:03;18.10;73.30
26099;DHT22;13860;52.370;6.764;2022-08-19T05:01:09;18.10;73.40
26099;DHT22;13860;52.370;6.764;2022-08-19T05:04:19;18.10;73.50
26099;DHT22;13860;52.370;6.764;2022-08-19T05:07:24;18.00;73.50
26099;DHT22;13860;52.370;6.764;2022-08-19T05:10:29;18.00;73.50
26099;DHT22;13860;52.370;6.764;2022-08-19T05:13:35;18.00;73.50
26099;DHT22;13860;52.370;6.764;2022-08-19T05:16:42;18.00;73.60
26099;DHT22;13860;52.370;6.764;2022-08-19T05:19:50;18.00;73.60
26099;DHT22;13860;52.370;6.764;2022-08-19T05:23:10;18.00;73.70
26099;DHT22;13860;52.370;6.764;2022-08-19T05:26:24;18.00;73.70
26099;DHT22;13860;52.370;6.764;2022-08-19T05:29:29;17.90;73.60
26099;DHT22;13860;52.370;6.764;2022-08-19T05:32:37;17.90;73.60
26099;DHT22;13860;52.370;6.764;2022-08-19T05:35:45;17.90;73.70
26099;DHT22;13860;52.370;6.764;2022-08-19T05:38:50;17.90;73.80
26099;DHT22;13860;52.370;6.764;2022-08-19T05:41:57;17.90;73.80
26099;DHT22;13860;52.370;6.764;2022-08-19T05:45:03;17.90;73.90
26099;DHT22;13860;52.370;6.764;2022-08-19T05:48:09;17.90;73.90
26099;DHT22;13860;52.370;6.764;2022-08-19T05:51:17;17.90;73.90
26099;DHT22;13860;52.370;6.764;2022-08-19T05:54:23;17.90;74.00
26099;DHT22;13860;52.370;6.764;2022-08-19T05:57:29;17.90;73.90
26099;DHT22;13860;52.370;6.764;2022-08-19T06:00:34;17.90;73.90
26099;DHT22;13860;52.370;6.764;2022-08-19T06:03:39;17.90;74.00
26099;DHT22;13860;52.370;6.764;2022-08-19T06:06:48;17.90;74.10
26099;DHT22;13860;52.370;6.764;2022-08-19T06:09:53;18.00;74.30
26099;DHT22;13860;52.370;6.764;2022-08-19T06:13:02;18.00;74.20
26099;DHT22;13860;52.370;6.764;2022-08-19T06:16:07;18.00;74.40
26099;DHT22;13860;52.370;6.764;2022-08-19T06:19:13;18.00;74.50
26099;DHT22;13860;52.370;6.764;2022-08-19T06:22:22;18.10;74.70
26099;DHT22;13860;52.370;6.764;2022-08-19T06:25:27;18.20;74.80
26099;DHT22;13860;52.370;6.764;2022-08-19T06:28:32;18.20;74.80
26099;DHT22;13860;52.370;6.764;2022-08-19T06:31:41;18.30;74.80
26099;DHT22;13860;52.370;6.764;2022-08-19T06:34:47;18.40;75.00
26099;DHT22;13860;52.370;6.764;2022-08-19T06:37:54;18.50;75.00
26099;DHT22;13860;52.370;6.764;2022-08-19T06:41:03;18.60;75.10
26099;DHT22;13860;52.370;6.764;2022-08-19T06:44:09;18.70;75.10
26099;DHT22;13860;52.370;6.764;2022-08-19T06:47:16;18.80;75.10
26099;DHT22;13860;52.370;6.764;2022-08-19T06:50:29;19.00;75.30
26099;DHT22;13860;52.370;6.764;2022-08-19T06:53:40;19.10;75.30
26099;DHT22;13860;52.370;6.764;2022-08-19T06:56:49;19.20;75.40
26099;DHT22;13860;52.370;6.764;2022-08-19T06:59:54;19.40;75.40
26099;DHT22;13860;52.370;6.764;2022-08-19T07:02:59;19.60;75.50
26099;DHT22;13860;52.370;6.764;2022-08-19T07:06:11;19.80;75.50
26099;DHT22;13860;52.370;6.764;2022-08-19T07:09:42;20.00;75.40
26099;DHT22;13860;52.370;6.764;2022-08-19T07:13:01;20.20;75.40
26099;DHT22;13860;52.370;6.764;2022-08-19T07:16:06;20.40;75.20
26099;DHT22;13860;52.370;6.764;2022-08-19T07:19:14;20.50;75.20
26099;DHT22;13860;52.370;6.764;2022-08-19T07:22:20;20.80;75.40
26099;DHT22;13860;52.370;6.764;2022-08-19T07:25:28;21.00;75.20
26099;DHT22;13860;52.370;6.764;2022-08-19T07:28:35;21.20;75.20
26099;DHT22;13860;52.370;6.764;2022-08-19T07:31:52;21.40;75.70
26099;DHT22;13860;52.370;6.764;2022-08-19T07:34:58;21.60;75.00
26099;DHT22;13860;52.370;6.764;2022-08-19T07:38:05;21.90;75.00
26099;DHT22;13860;52.370;6.764;2022-08-19T07:41:15;22.20;74.80
26099;DHT22;13860;52.370;6.764;2022-08-19T07:44:20;22.30;74.50
26099;DHT22;13860;52.370;6.764;2022-08-19T07:47:25;22.60;74.40
26099;DHT22;13860;52.370;6.764;2022-08-19T07:50:52;22.80;74.10
26099;DHT22;13860;52.370;6.764;2022-08-19T07:53:57;23.00;73.90
26099;DHT22;13860;52.370;6.764;2022-08-19T07:57:05;23.20;73.70
26099;DHT22;13860;52.370;6.764;2022-08-19T08:00:11;23.40;73.50
26099;DHT22;13860;52.370;6.764;2022-08-19T08:03:19;23.60;73.30
26099;DHT22;13860;52.370;6.764;2022-08-19T08:06:44;23.70;73.10
26099;DHT22;13860;52.370;6.764;2022-08-19T08:10:04;23.90;72.90
26099;DHT22;13860;52.370;6.764;2022-08-19T08:13:24;24.00;72.70
26099;DHT22;13860;52.370;6.764;2022-08-19T08:16:30;24.20;72.50
26099;DHT22;13860;52.370;6.764;2022-08-19T08:19:36;24.30;72.30
26099;DHT22;13860;52.370;6.764;2022-08-19T08:22:44;24.50;72.20
26099;DHT22;13860;52.370;6.764;2022-08-19T08:26:01;24.60;72.00
26099;DHT22;13860;52.370;6.764;2022-08-19T08:29:09;24.80;71.90
26099;DHT22;13860;52.370;6.764;2022-08-19T08:32:15;25.00;71.70
26099;DHT22;13860;52.370;6.764;2022-08-19T08:35:22;25.10;72.00
26099;DHT22;13860;52.370;6.764;2022-08-19T08:38:27;25.30;71.30
26099;DHT22;13860;52.370;6.764;2022-08-19T08:41:44;25.40;71.10
26099;DHT22;13860;52.370;6.764;2022-08-19T08:44:58;25.50;70.70
26099;DHT22;13860;52.370;6.764;2022-08-19T08:48:13;25.70;70.50
26099;DHT22;13860;52.370;6.764;2022-08-19T08:51:29;25.80;70.20
26099;DHT22;13860;52.370;6.764;2022-08-19T08:54:40;26.00;70.10
26099;DHT22;13860;52.370;6.764;2022-08-19T08:58:01;26.10;69.80
26099;DHT22;13860;52.370;6.764;2022-08-19T09:01:10;26.30;69.70
26099;DHT22;13860;52.370;6.764;2022-08-19T09:04:16;26.40;69.30
26099;DHT22;13860;52.370;6.764;2022-08-19T09:07:31;26.60;69.20
26099;DHT22;13860;52.370;6.764;2022-08-19T09:10:49;26.70;68.80
26099;DHT22;13860;52.370;6.764;2022-08-19T09:14:05;26.80;68.60
26099;DHT22;13860;52.370;6.764;2022-08-19T09:17:36;27.00;68.40
26099;DHT22;13860;52.370;6.764;2022-08-19T09:20:41;27.20;68.20
26099;DHT22;13860;52.370;6.764;2022-08-19T09:23:47;27.30;67.90
26099;DHT22;13860;52.370;6.764;2022-08-19T09:26:53;27.40;67.60
26099;DHT22;13860;52.370;6.764;2022-08-19T09:29:58;27.50;67.30
26099;DHT22;13860;52.370;6.764;2022-08-19T09:33:06;27.60;67.00
26099;DHT22;13860;52.370;6.764;2022-08-19T09:36:14;27.70;66.80
26099;DHT22;13860;52.370;6.764;2022-08-19T09:39:35;27.90;66.70
26099;DHT22;13860;52.370;6.764;2022-08-19T09:42:40;28.00;66.60
26099;DHT22;13860;52.370;6.764;2022-08-19T09:45:52;28.20;66.40
26099;DHT22;13860;52.370;6.764;2022-08-19T09:49:00;28.30;66.00
26099;DHT22;13860;52.370;6.764;2022-08-19T09:52:08;28.40;65.60
26099;DHT22;13860;52.370;6.764;2022-08-19T09:55:14;28.60;65.50
26099;DHT22;13860;52.370;6.764;2022-08-19T09:58:20;28.70;65.10
26099;DHT22;13860;52.370;6.764;2022-08-19T10:01:31;28.90;65.60
26099;DHT22;13860;52.370;6.764;2022-08-19T10:04:38;29.10;64.60
26099;DHT22;13860;52.370;6.764;2022-08-19T10:07:56;29.20;64.10
26099;DHT22;13860;52.370;6.764;2022-08-19T10:11:05;29.40;64.00
26099;DHT22;13860;52.370;6.764;2022-08-19T10:14:31;29.60;63.60
26099;DHT22;13860;52.370;6.764;2022-08-19T10:17:36;29.70;63.10
26099;DHT22;13860;52.370;6.764;2022-08-19T10:20:51;29.80;62.70
26099;DHT22;13860;52.370;6.764;2022-08-19T10:23:58;29.90;62.20
26099;DHT22;13860;52.370;6.764;2022-08-19T10:27:06;29.90;61.80
26099;DHT22;13860;52.370;6.764;2022-08-19T10:30:13;29.90;61.40
26099;DHT22;13860;52.370;6.764;2022-08-19T10:33:18;29.90;61.20
26099;DHT22;13860;52.370;6.764;2022-08-19T10:36:45;29.90;61.70
26099;DHT22;13860;52.370;6.764;2022-08-19T10:40:02;30.00;60.90
26099;DHT22;13860;52.370;6.764;2022-08-19T10:43:07;30.00;60.80
26099;DHT22;13860;52.370;6.764;2022-08-19T10:46:15;30.10;60.60
26099;DHT22;13860;52.370;6.764;2022-08-19T10:49:20;30.20;60.30
26099;DHT22;13860;52.370;6.764;2022-08-19T10:52:28;30.20;60.20
26099;DHT22;13860;52.370;6.764;2022-08-19T10:55:40;30.40;59.90
26099;DHT22;13860;52.370;6.764;2022-08-19T10:58:57;30.50;59.80
26099;DHT22;13860;52.370;6.764;2022-08-19T11:02:07;30.60;59.60
26099;DHT22;13860;52.370;6.764;2022-08-19T11:05:14;30.70;59.20
26099;DHT22;13860;52.370;6.764;2022-08-19T11:08:22;30.90;59.00
26099;DHT22;13860;52.370;6.764;2022-08-19T11:11:29;31.00;58.60
26099;DHT22;13860;52.370;6.764;2022-08-19T11:14:39;31.10;58.40
26099;DHT22;13860;52.370;6.764;2022-08-19T11:17:44;31.30;58.20
26099;DHT22;13860;52.370;6.764;2022-08-19T11:20:49;31.40;58.00
26099;DHT22;13860;52.370;6.764;2022-08-19T11:23:59;31.50;57.80
26099;DHT22;13860;52.370;6.764;2022-08-19T11:27:07;31.60;57.40
26099;DHT22;13860;52.370;6.764;2022-08-19T11:30:13;31.80;57.30
26099;DHT22;13860;52.370;6.764;2022-08-19T11:33:18;31.90;57.00
26099;DHT22;13860;52.370;6.764;2022-08-19T11:36:23;32.00;56.80
26099;DHT22;13860;52.370;6.764;2022-08-19T11:39:32;32.10;56.50
26099;DHT22;13860;52.370;6.764;2022-08-19T11:42:39;32.10;56.20
26099;DHT22;13860;52.370;6.764;2022-08-19T11:45:59;32.20;56.20
26099;DHT22;13860;52.370;6.764;2022-08-19T11:49:06;32.30;56.00
26099;DHT22;13860;52.370;6.764;2022-08-19T11:52:15;32.40;55.70
26099;DHT22;13860;52.370;6.764;2022-08-19T11:55:23;32.50;55.60
26099;DHT22;13860;52.370;6.764;2022-08-19T11:58:28;32.50;55.30
26099;DHT22;13860;52.370;6.764;2022-08-19T12:01:34;32.50;55.20
26099;DHT22;13860;52.370;6.764;2022-08-19T12:04:39;32.50;55.00
26099;DHT22;13860;52.370;6.764;2022-08-19T12:07:44;32.60;54.90
26099;DHT22;13860;52.370;6.764;2022-08-19T12:10:55;32.60;54.70
26099;DHT22;13860;52.370;6.764;2022-08-19T12:14:00;32.60;54.40
26099;DHT22;13860;52.370;6.764;2022-08-19T12:17:05;32.60;54.20
26099;DHT22;13860;52.370;6.764;2022-08-19T12:20:13;32.70;54.00
26099;DHT22;13860;52.370;6.764;2022-08-19T12:23:19;32.60;53.70
26099;DHT22;13860;52.370;6.764;2022-08-19T12:26:28;32.60;53.70
26099;DHT22;13860;52.370;6.764;2022-08-19T12:29:33;32.50;53.30
26099;DHT22;13860;52.370;6.764;2022-08-19T12:32:39;32.40;53.30
26099;DHT22;13860;52.370;6.764;2022-08-19T12:35:45;32.30;53.20
26099;DHT22;13860;52.370;6.764;2022-08-19T12:38:51;32.10;53.10
26099;DHT22;13860;52.370;6.764;2022-08-19T12:41:59;32.00;53.20
26099;DHT22;13860;52.370;6.764;2022-08-19T12:45:05;31.80;53.00
26099;DHT22;13860;52.370;6.764;2022-08-19T12:48:10;31.70;53.10
26099;DHT22;13860;52.370;6.764;2022-08-19T12:51:35;31.50;53.20
26099;DHT22;13860;52.370;6.764;2022-08-19T12:54:40;31.40;53.30
26099;DHT22;13860;52.370;6.764;2022-08-19T12:57:47;31.30;53.20
26099;DHT22;13860;52.370;6.764;2022-08-19T13:00:53;31.20;53.00
26099;DHT22;13860;52.370;6.764;2022-08-19T13:03:58;31.20;53.10
26099;DHT22;13860;52.370;6.764;2022-08-19T13:07:03;31.10;53.00
26099;DHT22;13860;52.370;6.764;2022-08-19T13:10:11;31.10;52.90
26099;DHT22;13860;52.370;6.764;2022-08-19T13:13:22;31.10;52.80
26099;DHT22;13860;52.370;6.764;2022-08-19T13:16:28;31.10;52.60
26099;DHT22;13860;52.370;6.764;2022-08-19T13:19:36;31.10;52.60
26099;DHT22;13860;52.370;6.764;2022-08-19T13:22:42;31.20;52.50
26099;DHT22;13860;52.370;6.764;2022-08-19T13:25:55;31.20;52.30
26099;DHT22;13860;52.370;6.764;2022-08-19T13:29:03;31.30;52.10
26099;DHT22;13860;52.370;6.764;2022-08-19T13:32:20;31.30;52.50
26099;DHT22;13860;52.370;6.764;2022-08-19T13:35:38;31.40;52.50
26099;DHT22;13860;52.370;6.764;2022-08-19T13:38:43;31.40;52.10
26099;DHT22;13860;52.370;6.764;2022-08-19T13:41:48;31.50;51.90
26099;DHT22;13860;52.370;6.764;2022-08-19T13:44:56;31.60;51.70
26099;DHT22;13860;52.370;6.764;2022-08-19T13:48:03;31.60;51.50
26099;DHT22;13860;52.370;6.764;2022-08-19T13:51:10;31.60;51.40
26099;DHT22;13860;52.370;6.764;2022-08-19T13:54:15;31.70;51.40
26099;DHT22;13860;52.370;6.764;2022-08-19T13:57:20;31.70;51.20
26099;DHT22;13860;52.370;6.764;2022-08-19T14:00:29;31.80;51.70
26099;DHT22;13860;52.370;6.764;2022-08-19T14:03:36;31.80;50.90
26099;DHT22;13860;52.370;6.764;2022-08-19T14:06:41;31.80;51.00
26099;DHT22;13860;52.370;6.764;2022-08-19T14:09:46;31.80;50.90
26099;DHT22;13860;52.370;6.764;2022-08-19T14:12:53;31.80;50.80
26099;DHT22;13860;52.370;6.764;2022-08-19T14:16:07;31.80;50.70
26099;DHT22;13860;52.370;6.764;2022-08-19T14:19:12;31.80;50.50
26099;DHT22;13860;52.370;6.764;2022-08-19T14:22:17;31.80;51.20
26099;DHT22;13860;52.370;6.764;2022-08-19T14:25:27;31.70;50.40
26099;DHT22;13860;52.370;6.764;2022-08-19T14:28:33;31.70;50.20
26099;DHT22;13860;52.370;6.764;2022-08-19T14:31:40;31.60;50.30
26099;DHT22;13860;52.370;6.764;2022-08-19T14:34:46;31.50;50.10
26099;DHT22;13860;52.370;6.764;2022-08-19T14:37:51;31.50;50.20
26099;DHT22;13860;52.370;6.764;2022-08-19T14:41:07;31.40;50.10
26099;DHT22;13860;52.370;6.764;2022-08-19T14:44:12;31.40;49.80
26099;DHT22;13860;52.370;6.764;2022-08-19T14:47:19;31.30;50.00
26099;DHT22;13860;52.370;6.764;2022-08-19T14:50:25;31.30;50.00
26099;DHT22;13860;52.370;6.764;2022-08-19T14:53:30;31.20;50.10
26099;DHT22;13860;52.370;6.764;2022-08-19T14:56:35;31.10;49.90
26099;DHT22;13860;52.370;6.764;2022-08-19T14:59:40;31.10;49.90
26099;DHT22;13860;52.370;6.764;2022-08-19T15:02:48;31.00;50.00
26099;DHT22;13860;52.370;6.764;2022-08-19T15:05:53;30.90;49.90
26099;DHT22;13860;52.370;6.764;2022-08-19T15:08:59;30.90;50.00
26099;DHT22;13860;52.370;6.764;2022-08-19T15:12:05;30.80;49.90
26099;DHT22;13860;52.370;6.764;2022-08-19T15:15:15;30.80;50.50
26099;DHT22;13860;52.370;6.764;2022-08-19T15:18:22;30.70;49.80
26099;DHT22;13860;52.370;6.764;2022-08-19T15:21:28;30.70;49.90
26099;DHT22;13860;52.370;6.764;2022-08-19T15:24:34;30.60;49.90
26099;DHT22;13860;52.370;6.764;2022-08-19T15:27:49;30.60;50.00
26099;DHT22;13860;52.370;6.764;2022-08-19T15:30:55;30.60;50.10
26099;DHT22;13860;52.370;6.764;2022-08-19T15:34:03;30.60;50.10
26099;DHT22;13860;52.370;6.764;2022-08-19T15:37:11;30.60;50.00
26099;DHT22;13860;52.370;6.764;2022-08-19T15:40:17;30.60;50.10
26099;DHT22;13860;52.370;6.764;2022-08-19T15:43:22;30.50;50.20
26099;DHT22;13860;52.370;6.764;2022-08-19T15:46:29;30.50;50.20
26099;DHT22;13860;52.370;6.764;2022-08-19T15:49:37;30.40;50.20
26099;DHT22;13860;52.370;6.764;2022-08-19T15:52:45;30.40;50.30
26099;DHT22;13860;52.370;6.764;2022-08-19T15:55:51;30.30;50.60
26099;DHT22;13860;52.370;6.764;2022-08-19T15:58:56;30.30;50.90
26099;DHT22;13860;52.370;6.764;2022-08-19T16:02:14;30.20;51.20
26099;DHT22;13860;52.370;6.764;2022-08-19T16:05:35;30.20;51.50
26099;DHT22;13860;52.370;6.764;2022-08-19T16:08:54;30.10;51.80
26099;DHT22;13860;52.370;6.764;2022-08-19T16:12:01;30.00;52.00
26099;DHT22;13860;52.370;6.764;2022-08-19T16:15:08;29.90;52.20
26099;DHT22;13860;52.370;6.764;2022-08-19T16:18:14;29.90;52.50
26099;DHT22;13860;52.370;6.764;2022-08-19T16:21:23;29.70;52.70
26099;DHT22;13860;52.370;6.764;2022-08-19T16:24:33;29.60;53.00
26099;DHT22;13860;52.370;6.764;2022-08-19T16:27:38;29.50;53.10
26099;DHT22;13860;52.370;6.764;2022-08-19T16:31:04;29.40;53.30
26099;DHT22;13860;52.370;6.764;2022-08-19T16:34:10;29.30;53.40
26099;DHT22;13860;52.370;6.764;2022-08-19T16:37:18;29.20;53.60
26099;DHT22;13860;52.370;6.764;2022-08-19T16:40:24;29.10;53.70
26099;DHT22;13860;52.370;6.764;2022-08-19T16:43:29;29.00;53.90
26099;DHT22;13860;52.370;6.764;2022-08-19T16:46:34;28.80;54.70
26099;DHT22;13860;52.370;6.764;2022-08-19T16:49:43;28.70;54.20
26099;DHT22;13860;52.370;6.764;2022-08-19T16:52:58;28.60;54.40
26099;DHT22;13860;52.370;6.764;2022-08-19T16:56:04;28.50;54.60
26099;DHT22;13860;52.370;6.764;2022-08-19T16:59:10;28.40;54.80
26099;DHT22;13860;52.370;6.764;2022-08-19T17:02:16;28.30;55.00
26099;DHT22;13860;52.370;6.764;2022-08-19T17:05:23;28.20;55.30
26099;DHT22;13860;52.370;6.764;2022-08-19T17:08:31;28.10;55.40
26099;DHT22;13860;52.370;6.764;2022-08-19T17:11:38;28.00;55.60
26099;DHT22;13860;52.370;6.764;2022-08-19T17:14:43;27.90;55.90
26099;DHT22;13860;52.370;6.764;2022-08-19T17:17:49;27.80;56.00
26099;DHT22;13860;52.370;6.764;2022-08-19T17:20:54;27.70;56.20
26099;DHT22;13860;52.370;6.764;2022-08-19T17:24:04;27.60;56.60
26099;DHT22;13860;52.370;6.764;2022-08-19T17:27:09;27.50;57.10
26099;DHT22;13860;52.370;6.764;2022-08-19T17:30:14;27.40;57.10
26099;DHT22;13860;52.370;6.764;2022-08-19T17:33:20;27.40;57.40
26099;DHT22;13860;52.370;6.764;2022-08-19T17:36:26;27.30;57.60
26099;DHT22;13860;52.370;6.764;2022-08-19T17:39:34;27.20;57.80
26099;DHT22;13860;52.370;6.764;2022-08-19T17:42:41;27.20;58.00
26099;DHT22;13860;52.370;6.764;2022-08-19T17:45:46;27.10;58.10
26099;DHT22;13860;52.370;6.764;2022-08-19T17:48:51;27.00;58.30
26099;DHT22;13860;52.370;6.764;2022-08-19T17:51:58;27.00;58.40
26099;DHT22;13860;52.370;6.764;2022-08-19T17:55:07;26.90;58.40
26099;DHT22;13860;52.370;6.764;2022-08-19T17:58:12;26.80;58.50
26099;DHT22;13860;52.370;6.764;2022-08-19T18:01:20;26.80;58.50
26099;DHT22;13860;52.370;6.764;2022-08-19T18:04:27;26.70;58.50
26099;DHT22;13860;52.370;6.764;2022-08-19T18:07:32;26.60;58.50
26099;DHT22;13860;52.370;6.764;2022-08-19T18:10:40;26.60;58.60
26099;DHT22;13860;52.370;6.764;2022-08-19T18:13:45;26.50;58.70
26099;DHT22;13860;52.370;6.764;2022-08-19T18:16:51;26.40;58.70
26099;DHT22;13860;52.370;6.764;2022-08-19T18:19:56;26.40;58.80
26099;DHT22;13860;52.370;6.764;2022-08-19T18:23:01;26.40;59.00
26099;DHT22;13860;52.370;6.764;2022-08-19T18:26:29;26.30;59.00
26099;DHT22;13860;52.370;6.764;2022-08-19T18:29:34;26.20;59.00
26099;DHT22;13860;52.370;6.764;2022-08-19T18:32:42;26.20;59.10
26099;DHT22;13860;52.370;6.764;2022-08-19T18:35:50;26.20;59.20
26099;DHT22;13860;52.370;6.764;2022-08-19T18:38:56;26.10;59.30
26099;DHT22;13860;52.370;6.764;2022-08-19T18:42:17;26.10;59.40
26099;DHT22;13860;52.370;6.764;2022-08-19T18:45:36;26.00;59.50
26099;DHT22;13860;52.370;6.764;2022-08-19T18:48:54;26.00;59.60
26099;DHT22;13860;52.370;6.764;2022-08-19T18:52:09;25.90;59.60
26099;DHT22;13860;52.370;6.764;2022-08-19T18:55:14;25.90;59.70
26099;DHT22;13860;52.370;6.764;2022-08-19T18:58:22;25.80;59.80
26099;DHT22;13860;52.370;6.764;2022-08-19T19:01:30;25.80;60.00
26099;DHT22;13860;52.370;6.764;2022-08-19T19:04:37;25.70;60.10
26099;DHT22;13860;52.370;6.764;2022-08-19T19:07:42;25.70;60.20
26099;DHT22;13860;52.370;6.764;2022-08-19T19:10:47;25.60;60.30
26099;DHT22;13860;52.370;6.764;2022-08-19T19:13:55;25.60;60.40
26099;DHT22;13860;52.370;6.764;2022-08-19T19:17:04;25.50;60.50
26099;DHT22;13860;52.370;6.764;2022-08-19T19:20:10;25.50;60.70
26099;DHT22;13860;52.370;6.764;2022-08-19T19:23:15;25.40;60.80
26099;DHT22;13860;52.370;6.764;2022-08-19T19:26:21;25.30;60.80
26099;DHT22;13860;52.370;6.764;2022-08-19T19:29:29;25.30;61.00
26099;DHT22;13860;52.370;6.764;2022-08-19T19:32:36;25.30;61.20
26099;DHT22;13860;52.370;6.764;2022-08-19T19:35:42;25.20;61.30
26099;DHT22;13860;52.370;6.764;2022-08-19T19:38:48;25.20;61.40
26099;DHT22;13860;52.370;6.764;2022-08-19T19:41:53;25.10;61.60
26099;DHT22;13860;52.370;6.764;2022-08-19T19:45:01;25.10;61.70
26099;DHT22;13860;52.370;6.764;2022-08-19T19:48:06;25.00;61.90
26099;DHT22;13860;52.370;6.764;2022-08-19T19:51:14;25.00;61.90